Time;durP1;ratioP1;P1;durP2;ratioP2;P2;SDS_P1;SDS_P2;PMS_P1;PMS_P2;Temp;Humidity;BMP_temperature;BMP_pressure;BME280_temperature;BME280_humidity;BME280_pressure;Samples;Min_cycle;Max_cycle;Signal;HPM_P1;HPM_P2
2022/06/29 00:01:34;;;;;;;;;;;;;;;;;;5102384;28;20011;-85
2022/06/29 00:03:59;;;;;;;;;;;;;;;;;;5104568;28;20420;-85
2022/06/29 00:06:24;;;;;;;;;;;;;;;;;;5104974;28;20313;-85
2022/06/29 00:08:49;;;;;;;;;;;;;;;;;;5105241;28;19930;-86
2022/06/29 00:11:14;;;;;;;;;;;;;;;;;;5105261;28;19919;-85
2022/06/29 00:13:40;;;;;;;;;;;;;;;;;;5104743;28;19957;-85
2022/06/29 00:16:05;;;;;;;;;;;;;;;;;;5103391;28;19913;-85
2022/06/29 00:18:30;;;;;;;;;;;;;;;;;;5104131;28;19908;-85
2022/06/29 00:20:55;;;;;;;;;;;;;;;;;;5102549;28;19913;-85
2022/06/29 00:23:20;;;;;;;;;;;;;;;;;;5104863;28;20270;-85
2022/06/29 00:25:45;;;;;;;;;;;;;;;;;;5103321;28;19908;-85
2022/06/29 00:28:11;;;;;;;;;;;;;;;;;;5104726;28;19908;-85
2022/06/29 00:30:36;;;;;;;;;;;;;;;;;;5104602;28;19909;-85
2022/06/29 00:33:01;;;;;;;;;;;;;;;;;;5105512;28;19930;-85
2022/06/29 00:35:26;;;;;;;;;;;;;;;;;;5103184;28;20358;-85
2022/06/29 00:37:51;;;;;;;;;;;;;;;;;;5103392;28;19908;-85
2022/06/29 00:40:16;;;;;;;;;;;;;;;;;;5104710;28;19909;-85
2022/06/29 00:42:42;;;;;;;;;;;;;;;;;;5102144;28;20017;-85
2022/06/29 00:45:07;;;;;;;;;;;;;;;;;;5103941;28;19908;-85
2022/06/29 00:47:32;;;;;;;;;;;;;;;;;;5103895;28;19908;-85
2022/06/29 00:49:57;;;;;;;;;;;;;;;;;;5104084;28;19908;-85
2022/06/29 00:52:22;;;;;;;;;;;;;;;;;;5103239;28;19916;-85
2022/06/29 00:54:47;;;;;;;;;;;;;;;;;;5104113;28;19915;-85
2022/06/29 00:57:12;;;;;;;;;;;;;;;;;;5104290;28;19912;-85
2022/06/29 00:59:38;;;;;;;;;;;;;;;;;;5103894;28;19954;-85
2022/06/29 01:02:03;;;;;;;;;;;;;;;;;;5102950;28;19920;-85
2022/06/29 01:04:28;;;;;;;;;;;;;;;;;;5103300;28;20289;-85
2022/06/29 01:06:53;;;;;;;;;;;;;;;;;;5104024;28;19912;-85
2022/06/29 01:09:18;;;;;;;;;;;;;;;;;;5103165;28;19908;-85
2022/06/29 01:11:44;;;;;;;;;;;;;;;;;;5102394;28;19908;-85
2022/06/29 01:14:09;;;;;;;;;;;;;;;;;;5102217;28;20002;-85
2022/06/29 01:16:34;;;;;;;;;;;;;;;;;;5101873;28;20014;-85
2022/06/29 01:18:59;;;;;;;;;;;;;;;;;;5100965;28;19995;-85
2022/06/29 01:21:25;;;;;;;;;;;;;;;;;;5101282;28;20343;-85
2022/06/29 01:23:50;;;;;;;;;;;;;;;;;;5101061;28;19908;-85
2022/06/29 01:26:15;;;;;;;;;;;;;;;;;;5107937;28;19939;-85
2022/06/29 01:28:46;;;;;;;;;;;;;;;;;;5104352;28;20273;-85
2022/06/29 01:31:11;;;;;;;;;;;;;;;;;;5104229;28;19908;-85
2022/06/29 01:33:36;;;;;;;;;;;;;;;;;;5103912;28;19908;-85
2022/06/29 01:36:01;;;;;;;;;;;;;;;;;;5103762;28;19912;-85
2022/06/29 01:38:26;;;;;;;;;;;;;;;;;;5102939;28;19909;-85
2022/06/29 01:40:51;;;;;;;;;;;;;;;;;;5104493;28;19908;-85
2022/06/29 01:43:16;;;;;;;;;;;;;;;;;;5103486;28;20363;-85
2022/06/29 01:45:41;;;;;;;;;;;;;;;;;;5103874;28;20296;-85
2022/06/29 01:48:07;;;;;;;;;;;;;;;;;;5103819;28;20252;-85
2022/06/29 01:50:32;;;;;;;;;;;;;;;;;;5103860;28;20290;-85
2022/06/29 01:52:57;;;;;;;;;;;;;;;;;;5102022;28;19912;-85
2022/06/29 01:55:22;;;;;;;;;;;;;;;;;;5104029;28;19930;-85
2022/06/29 01:57:47;;;;;;;;;;;;;;;;;;5103286;28;19908;-85
2022/06/29 02:00:12;;;;;;;;;;;;;;;;;;5104144;28;19916;-85
2022/06/29 02:02:37;;;;;;;;;;;;;;;;;;5076446;22;19931;-85
2022/06/29 02:05:02;;;;;;;;;;;;;;;;;;5065678;28;19960;-85
2022/06/29 02:07:27;;;;;;;;;;;;;;;;;;5064033;28;19905;-85
2022/06/29 02:09:53;;;;;;;;;;;;;;;;;;5063685;28;19948;-85
2022/06/29 02:12:18;;;;;;;;;;;;;;;;;;5063176;28;19979;-85
2022/06/29 02:14:43;;;;;;;;;;;;;;;;;;5062787;28;20351;-85
2022/06/29 02:17:08;;;;;;;;;;;;;;;;;;5063284;28;19916;-85
2022/06/29 02:19:33;;;;;;;;;;;;;;;;;;5063109;28;19955;-85
2022/06/29 02:21:58;;;;;;;;;;;;;;;;;;5062489;28;19909;-85
2022/06/29 02:24:23;;;;;;;;;;;;;;;;;;5062687;28;20274;-85
2022/06/29 02:26:48;;;;;;;;;;;;;;;;;;5062693;28;19908;-85
2022/06/29 02:29:13;;;;;;;;;;;;;;;;;;5062704;28;19909;-85
2022/06/29 02:37:07;;;;;;;;;;;;;;;;;;5062748;28;19935;-85
2022/06/29 02:39:32;;;;;;;;;;;;;;;;;;5062110;28;19913;-85
2022/06/29 02:41:57;;;;;;;;;;;;;;;;;;5062728;28;20008;-85
2022/06/29 02:44:22;;;;;;;;;;;;;;;;;;5067738;28;19909;-85
2022/06/29 02:46:47;;;;;;;;;;;;;;;;;;5062702;28;19909;-86
2022/06/29 02:49:12;;;;;;;;;;;;;;;;;;5062308;28;19913;-85
2022/06/29 02:51:37;;;;;;;;;;;;;;;;;;5062296;28;19909;-85
2022/06/29 02:54:02;;;;;;;;;;;;;;;;;;5062548;28;20310;-85
2022/06/29 02:56:27;;;;;;;;;;;;;;;;;;5062895;28;19936;-85
2022/06/29 02:58:52;;;;;;;;;;;;;;;;;;5063969;28;19995;-87
2022/06/29 03:01:18;;;;;;;;;;;;;;;;;;5063129;28;20403;-84
2022/06/29 03:03:43;;;;;;;;;;;;;;;;;;5062619;28;20295;-84
2022/06/29 03:06:08;;;;;;;;;;;;;;;;;;5061637;28;19968;-84
2022/06/29 03:08:33;;;;;;;;;;;;;;;;;;5061754;28;20347;-84
2022/06/29 03:10:58;;;;;;;;;;;;;;;;;;5063283;28;19962;-85
2022/06/29 03:13:23;;;;;;;;;;;;;;;;;;5062890;28;19909;-84
2022/06/29 03:15:48;;;;;;;;;;;;;;;;;;5060398;28;19913;-84
2022/06/29 03:18:13;;;;;;;;;;;;;;;;;;5059866;28;19909;-84
2022/06/29 03:20:39;;;;;;;;;;;;;;;;;;5058723;28;19909;-84
2022/06/29 03:23:04;;;;;;;;;;;;;;;;;;5057910;28;19916;-85
2022/06/29 03:25:29;;;;;;;;;;;;;;;;;;5057242;28;19913;-85
2022/06/29 03:27:54;;;;;;;;;;;;;;;;;;5065442;28;19935;-85
2022/06/29 03:30:19;;;;;;;;;;;;;;;;;;5060539;28;19909;-85
2022/06/29 03:32:44;;;;;;;;;;;;;;;;;;5061412;28;20011;-85
2022/06/29 03:35:09;;;;;;;;;;;;;;;;;;5061369;28;20403;-85
2022/06/29 03:37:34;;;;;;;;;;;;;;;;;;5060269;28;20275;-85
2022/06/29 03:40:00;;;;;;;;;;;;;;;;;;5061410;28;19909;-85
2022/06/29 03:42:25;;;;;;;;;;;;;;;;;;5061220;28;19909;-85
2022/06/29 03:44:50;;;;;;;;;;;;;;;;;;5061197;28;19916;-84
2022/06/29 03:47:15;;;;;;;;;;;;;;;;;;5060554;28;19963;-85
2022/06/29 03:49:40;;;;;;;;;;;;;;;;;;5042781;28;19930;-86
2022/06/29 03:52:05;;;;;;;;;;;;;;;;;;5063430;28;20272;-85
2022/06/29 03:54:31;;;;;;;;;;;;;;;;;;5064680;28;19915;-85
2022/06/29 03:56:56;;;;;;;;;;;;;;;;;;5064527;28;19913;-85
2022/06/29 03:59:21;;;;;;;;;;;;;;;;;;5064538;28;19968;-85
2022/06/29 04:01:46;;;;;;;;;;;;;;;;;;5065318;28;19921;-85
2022/06/29 04:04:11;;;;;;;;;;;;;;;;;;5064753;28;19909;-85
2022/06/29 04:06:36;;;;;;;;;;;;;;;;;;5065753;28;19909;-85
2022/06/29 04:09:01;;;;;;;;;;;;;;;;;;5065495;28;19909;-85
2022/06/29 04:14:10;;;;;;;;;;;;;;;;;;5064339;28;19938;-85
2022/06/29 04:16:36;;;;;;;;;;;;;;;;;;5046322;28;20007;-85
2022/06/29 04:19:01;;;;;;;;;;;;;;;;;;5064284;28;19909;-85
2022/06/29 04:21:26;;;;;;;;;;;;;;;;;;5064780;28;20307;-85
2022/06/29 04:23:51;;;;;;;;;;;;;;;;;;5064899;28;20351;-85
2022/06/29 04:26:16;;;;;;;;;;;;;;;;;;5064938;28;19909;-85
2022/06/29 04:28:42;;;;;;;;;;;;;;;;;;5065220;28;19980;-85
2022/06/29 04:31:07;;;;;;;;;;;;;;;;;;5064463;28;19909;-85
2022/06/29 04:33:32;;;;;;;;;;;;;;;;;;5063611;28;19913;-85
2022/06/29 04:35:57;;;;;;;;;;;;;;;;;;5062543;28;19916;-85
2022/06/29 04:38:22;;;;;;;;;;;;;;;;;;5062866;28;19913;-85
2022/06/29 04:40:47;;;;;;;;;;;;;;;;;;5063085;28;19913;-85
2022/06/29 04:43:12;;;;;;;;;;;;;;;;;;5063886;28;19912;-85
2022/06/29 04:48:21;;;;;;;;;;;;;;;;;;5063555;28;19920;-85
2022/06/29 04:50:46;;;;;;;;;;;;;;;;;;5063130;28;19909;-85
2022/06/29 04:53:11;;;;;;;;;;;;;;;;;;5063853;28;19966;-85
2022/06/29 04:55:37;;;;;;;;;;;;;;;;;;5063284;28;20355;-85
2022/06/29 04:58:02;;;;;;;;;;;;;;;;;;5063169;28;19916;-85
2022/06/29 05:00:27;;;;;;;;;;;;;;;;;;5061867;28;19911;-85
2022/06/29 05:02:52;;;;;;;;;;;;;;;;;;5061349;28;20015;-85
2022/06/29 05:05:17;;;;;;;;;;;;;;;;;;5061925;28;19909;-85
2022/06/29 05:07:42;;;;;;;;;;;;;;;;;;5060700;28;19916;-85
2022/06/29 05:10:07;;;;;;;;;;;;;;;;;;5060061;28;19916;-86
2022/06/29 05:12:32;;;;;;;;;;;;;;;;;;5059649;28;19915;-86
2022/06/29 05:14:58;;;;;;;;;;;;;;;;;;5059812;28;19932;-85
2022/06/29 05:17:23;;;;;;;;;;;;;;;;;;5068612;28;19956;-85
2022/06/29 05:19:48;;;;;;;;;;;;;;;;;;5062130;28;19979;-85
2022/06/29 05:22:13;;;;;;;;;;;;;;;;;;5062778;28;19968;-85
2022/06/29 05:24:38;;;;;;;;;;;;;;;;;;5061700;28;19913;-85
2022/06/29 05:27:05;;;;;;;;;;;;;;;;;;5062397;28;19924;-85
2022/06/29 05:29:30;;;;;;;;;;;;;;;;;;5061968;28;20299;-85
2022/06/29 05:31:55;;;;;;;;;;;;;;;;;;5061018;28;19917;-85
2022/06/29 05:34:20;;;;;;;;;;;;;;;;;;5053009;28;19920;-85
2022/06/29 05:36:45;;;;;;;;;;;;;;;;;;5055853;28;19924;-86
2022/06/29 05:39:10;;;;;;;;;;;;;;;;;;5031366;28;19914;-85
2022/06/29 05:41:35;;;;;;;;;;;;;;;;;;5063973;28;19924;-85
2022/06/29 05:44:02;;;;;;;;;;;;;;;;;;5057024;28;20387;-85
2022/06/29 05:46:28;;;;;;;;;;;;;;;;;;5063568;28;19917;-85
2022/06/29 05:48:53;;;;;;;;;;;;;;;;;;5058756;28;19916;-85
2022/06/29 05:51:18;;;;;;;;;;;;;;;;;;5065650;28;19982;-85
2022/06/29 05:53:44;;;;;;;;;;;;;;;;;;5060537;28;19913;-85
2022/06/29 05:56:09;;;;;;;;;;;;;;;;;;5052984;28;19917;-84
2022/06/29 05:58:34;;;;;;;;;;;;;;;;;;5052062;28;20067;-84
2022/06/29 06:00:59;;;;;;;;;;;;;;;;;;5052756;28;20391;-84
2022/06/29 06:03:24;;;;;;;;;;;;;;;;;;5047190;28;19921;-84
2022/06/29 06:05:50;;;;;;;;;;;;;;;;;;5037635;28;20266;-84
2022/06/29 06:08:15;;;;;;;;;;;;;;;;;;5034742;28;20388;-84
2022/06/29 06:10:40;;;;;;;;;;;;;;;;;;5022971;28;19921;-84
2022/06/29 06:13:05;;;;;;;;;;;;;;;;;;5035294;28;19921;-85
2022/06/29 06:15:30;;;;;;;;;;;;;;;;;;5009697;28;19921;-85
2022/06/29 06:17:55;;;;;;;;;;;;;;;;;;4955890;28;20551;-85
2022/06/29 06:20:20;;;;;;;;;;;;;;;;;;4965186;28;20096;-86
2022/06/29 06:22:46;;;;;;;;;;;;;;;;;;4923741;28;19921;-86
2022/06/29 06:25:11;;;;;;;;;;;;;;;;;;4940724;28;19980;-85
2022/06/29 06:27:36;;;;;;;;;;;;;;;;;;4937319;28;21811;-87
2022/06/29 06:30:02;;;;;;;;;;;;;;;;;;4879753;28;19920;-86
2022/06/29 06:32:27;;;;;;;;;;;;;;;;;;4906972;28;19955;-85
2022/06/29 06:34:52;;;;;;;;;;;;;;;;;;4928654;28;20400;-86
2022/06/29 06:37:17;;;;;;;;;;;;;;;;;;4913265;28;20515;-86
2022/06/29 06:41:21;;;;;;;;;;;;;;;;;;4950263;28;19921;-86
2022/06/29 06:42:28;;;;;;;;;;;;;;;;;;4985259;28;22023;-85
2022/06/29 06:44:53;;;;;;;;;;;;;;;;;;4946397;28;20088;-85
2022/06/29 06:47:18;;;;;;;;;;;;;;;;;;4964819;28;20375;-86
2022/06/29 06:49:43;;;;;;;;;;;;;;;;;;4969292;28;19921;-85
2022/06/29 06:52:08;;;;;;;;;;;;;;;;;;4969163;28;19921;-86
2022/06/29 06:54:33;;;;;;;;;;;;;;;;;;4964866;28;20378;-86
2022/06/29 06:56:58;;;;;;;;;;;;;;;;;;4947422;28;20011;-86
2022/06/29 06:59:26;;;;;;;;;;;;;;;;;;4948638;28;19925;-86
2022/06/29 07:01:51;;;;;;;;;;;;;;;;;;4957361;28;19935;-86
2022/06/29 07:04:16;;;;;;;;;;;;;;;;;;4953068;28;20658;-86
2022/06/29 07:06:41;;;;;;;;;;;;;;;;;;4958081;28;19920;-86
2022/06/29 07:09:07;;;;;;;;;;;;;;;;;;4940305;28;19921;-85
2022/06/29 07:11:32;;;;;;;;;;;;;;;;;;4924524;28;20378;-86
2022/06/29 07:13:57;;;;;;;;;;;;;;;;;;4899068;28;19921;-87
2022/06/29 07:16:23;;;;;;;;;;;;;;;;;;4855306;28;20125;-86
2022/06/29 07:18:53;;;;;;;;;;;;;;;;;;4790462;28;22515;-84
2022/06/29 07:21:18;;;;;;;;;;;;;;;;;;4908884;28;19921;-85
2022/06/29 07:23:44;;;;;;;;;;;;;;;;;;4916549;28;19971;-86
2022/06/29 07:26:09;;;;;;;;;;;;;;;;;;4916743;28;19925;-86
2022/06/29 07:28:34;;;;;;;;;;;;;;;;;;4889704;28;21791;-85
2022/06/29 07:30:59;;;;;;;;;;;;;;;;;;4871442;28;19921;-86
2022/06/29 07:33:24;;;;;;;;;;;;;;;;;;4869537;28;19924;-86
2022/06/29 07:35:49;;;;;;;;;;;;;;;;;;4863632;28;20873;-86
2022/06/29 07:38:15;;;;;;;;;;;;;;;;;;4880252;28;19928;-87
2022/06/29 07:40:40;;;;;;;;;;;;;;;;;;4892879;28;20029;-85
2022/06/29 07:43:05;;;;;;;;;;;;;;;;;;4890289;28;19927;-86
2022/06/29 07:45:30;;;;;;;;;;;;;;;;;;4887979;28;19928;-85
2022/06/29 07:47:55;;;;;;;;;;;;;;;;;;4882907;28;22865;-86
2022/06/29 07:50:20;;;;;;;;;;;;;;;;;;4902387;28;19924;-86
2022/06/29 07:52:46;;;;;;;;;;;;;;;;;;4901746;28;19921;-86
2022/06/29 07:55:11;;;;;;;;;;;;;;;;;;4899594;28;20052;-86
2022/06/29 07:57:36;;;;;;;;;;;;;;;;;;4893425;28;22217;-86
2022/06/29 08:00:01;;;;;;;;;;;;;;;;;;4904929;28;20039;-85
2022/06/29 08:02:26;;;;;;;;;;;;;;;;;;4906088;28;19929;-87
2022/06/29 08:04:51;;;;;;;;;;;;;;;;;;4888090;28;23755;-86
2022/06/29 08:07:16;;;;;;;;;;;;;;;;;;4907404;28;19925;-86
2022/06/29 08:09:42;;;;;;;;;;;;;;;;;;4922002;28;20043;-86
2022/06/29 08:12:13;;;;;;;;;;;;;;;;;;4964421;28;21201;-87
2022/06/29 08:14:38;;;;;;;;;;;;;;;;;;4946162;28;19927;-87
2022/06/29 08:19:55;;;;;;;;;;;;;;;;;;4939763;28;19928;-86
2022/06/29 08:22:20;;;;;;;;;;;;;;;;;;4907054;28;23242;-84
2022/06/29 08:25:03;;;;;;;;;;;;;;;;;;4918602;28;19921;-85
2022/06/29 08:27:30;;;;;;;;;;;;;;;;;;4940913;28;19921;-84
2022/06/29 08:29:55;;;;;;;;;;;;;;;;;;4940016;28;19921;-84
2022/06/29 08:32:21;;;;;;;;;;;;;;;;;;4948139;28;20131;-89
2022/06/29 08:34:46;;;;;;;;;;;;;;;;;;4981756;28;20061;-87
2022/06/29 08:37:24;;;;;;;;;;;;;;;;;;4983094;28;19951;-89
2022/06/29 08:39:55;;;;;;;;;;;;;;;;;;4964767;28;20944;-88
2022/06/29 08:42:20;;;;;;;;;;;;;;;;;;4956944;28;19992;-88
2022/06/29 08:44:45;;;;;;;;;;;;;;;;;;4960921;28;19921;-88
2022/06/29 08:47:10;;;;;;;;;;;;;;;;;;4952624;28;20002;-88
2022/06/29 08:49:39;;;;;;;;;;;;;;;;;;4950749;28;20023;-87
2022/06/29 08:52:04;;;;;;;;;;;;;;;;;;4952948;28;20055;-88
2022/06/29 08:54:31;;;;;;;;;;;;;;;;;;4953959;28;20002;-90
2022/06/29 08:56:56;;;;;;;;;;;;;;;;;;4950606;28;19964;-88
2022/06/29 08:59:24;;;;;;;;;;;;;;;;;;5033098;28;19961;-89
2022/06/29 09:01:49;;;;;;;;;;;;;;;;;;4989506;28;20051;-87
2022/06/29 09:04:14;;;;;;;;;;;;;;;;;;4950291;28;20360;-90
2022/06/29 09:06:42;;;;;;;;;;;;;;;;;;4957150;28;19920;-87
2022/06/29 09:09:07;;;;;;;;;;;;;;;;;;4953154;28;19917;-88
2022/06/29 09:11:33;;;;;;;;;;;;;;;;;;4944435;28;20712;-89
2022/06/29 09:13:58;;;;;;;;;;;;;;;;;;4934121;28;20456;-90
2022/06/29 09:16:23;;;;;;;;;;;;;;;;;;4954743;28;19925;-88
2022/06/29 09:18:48;;;;;;;;;;;;;;;;;;4926823;28;20600;-89
2022/06/29 09:21:13;;;;;;;;;;;;;;;;;;4906164;28;20511;-89
2022/06/29 09:23:39;;;;;;;;;;;;;;;;;;4872344;28;22372;-90
2022/06/29 09:26:04;;;;;;;;;;;;;;;;;;4923487;28;19981;-89
2022/06/29 09:28:29;;;;;;;;;;;;;;;;;;4918375;28;19920;-89
2022/06/29 09:30:55;;;;;;;;;;;;;;;;;;4955250;28;19921;-89
2022/06/29 09:33:20;;;;;;;;;;;;;;;;;;4969815;28;19971;-89
2022/06/29 09:35:45;;;;;;;;;;;;;;;;;;4981806;28;20160;-88
2022/06/29 09:38:10;;;;;;;;;;;;;;;;;;4988848;28;19921;-88
2022/06/29 09:40:35;;;;;;;;;;;;;;;;;;4962607;28;19921;-89
2022/06/29 09:43:00;;;;;;;;;;;;;;;;;;4985085;28;20384;-89
2022/06/29 09:45:25;;;;;;;;;;;;;;;;;;4969468;28;20471;-90
2022/06/29 09:47:50;;;;;;;;;;;;;;;;;;4972656;28;20846;-88
2022/06/29 09:50:16;;;;;;;;;;;;;;;;;;4989323;28;19991;-88
2022/06/29 09:52:43;;;;;;;;;;;;;;;;;;4978220;28;20279;-89
2022/06/29 09:55:10;;;;;;;;;;;;;;;;;;4976242;28;19921;-88
2022/06/29 09:57:35;;;;;;;;;;;;;;;;;;4956491;28;20091;-88
2022/06/29 10:02:44;;;;;;;;;;;;;;;;;;4966163;28;20810;-87
2022/06/29 10:05:09;;;;;;;;;;;;;;;;;;4979934;28;19921;-88
2022/06/29 10:07:34;;;;;;;;;;;;;;;;;;4947485;28;20442;-89
2022/06/29 10:10:03;;;;;;;;;;;;;;;;;;4909724;28;19921;-88
2022/06/29 10:15:12;;;;;;;;;;;;;;;;;;4950876;28;19928;-88
2022/06/29 10:17:39;;;;;;;;;;;;;;;;;;4954385;28;19968;-88
2022/06/29 10:20:04;;;;;;;;;;;;;;;;;;4951053;28;20040;-88
2022/06/29 10:22:29;;;;;;;;;;;;;;;;;;4930650;28;22219;-88
2022/06/29 10:24:54;;;;;;;;;;;;;;;;;;4947298;28;19984;-90
2022/06/29 10:27:20;;;;;;;;;;;;;;;;;;4964333;28;20000;-87
2022/06/29 10:29:45;;;;;;;;;;;;;;;;;;4950960;28;19921;-88
2022/06/29 10:32:10;;;;;;;;;;;;;;;;;;4925401;28;19920;-88
2022/06/29 10:34:38;;;;;;;;;;;;;;;;;;4944468;28;20130;-89
2022/06/29 10:37:15;;;;;;;;;;;;;;;;;;4937167;28;19999;-89
2022/06/29 10:39:40;;;;;;;;;;;;;;;;;;4928009;28;19921;-89
2022/06/29 10:44:49;;;;;;;;;;;;;;;;;;4949752;28;20002;-90
2022/06/29 10:47:14;;;;;;;;;;;;;;;;;;4929792;28;19934;-90
2022/06/29 10:49:39;;;;;;;;;;;;;;;;;;4950099;28;19929;-89
2022/06/29 10:52:04;;;;;;;;;;;;;;;;;;4934073;28;21153;-90
2022/06/29 10:54:30;;;;;;;;;;;;;;;;;;4958559;28;22223;-90
2022/06/29 10:56:55;;;;;;;;;;;;;;;;;;4956222;28;20111;-90
2022/06/29 10:59:23;;;;;;;;;;;;;;;;;;4952649;28;19927;-91
2022/06/29 11:01:48;;;;;;;;;;;;;;;;;;4936373;28;19933;-90
2022/06/29 11:04:13;;;;;;;;;;;;;;;;;;4941001;28;19929;-90
2022/06/29 11:12:30;;;;;;;;;;;;;;;;;;4911598;28;21312;-91
2022/06/29 11:17:39;;;;;;;;;;;;;;;;;;4968141;28;19989;-88
2022/06/29 11:20:07;;;;;;;;;;;;;;;;;;4961928;28;19924;-88
2022/06/29 11:22:32;;;;;;;;;;;;;;;;;;4941353;28;19924;-88
2022/06/29 11:24:57;;;;;;;;;;;;;;;;;;4957022;28;19987;-89
2022/06/29 11:27:22;;;;;;;;;;;;;;;;;;4963154;28;20688;-89
2022/06/29 11:29:50;;;;;;;;;;;;;;;;;;4955008;28;19921;-90
2022/06/29 11:32:16;;;;;;;;;;;;;;;;;;4936989;28;19921;-89
2022/06/29 11:34:43;;;;;;;;;;;;;;;;;;4941885;28;21207;-90
2022/06/29 11:37:11;;;;;;;;;;;;;;;;;;4935638;28;19931;-89
2022/06/29 11:39:36;;;;;;;;;;;;;;;;;;4946141;28;19928;-89
2022/06/29 11:44:45;;;;;;;;;;;;;;;;;;4948766;28;19982;-89
2022/06/29 11:47:11;;;;;;;;;;;;;;;;;;4956304;28;19921;-88
2022/06/29 11:49:44;;;;;;;;;;;;;;;;;;4946178;28;19978;-89
2022/06/29 11:52:13;;;;;;;;;;;;;;;;;;4946903;28;20889;-89
2022/06/29 11:54:38;;;;;;;;;;;;;;;;;;4947077;28;19956;-89
2022/06/29 11:57:03;;;;;;;;;;;;;;;;;;4925968;28;19947;-90
2022/06/29 11:59:28;;;;;;;;;;;;;;;;;;4949559;28;20985;-89
2022/06/29 12:01:53;;;;;;;;;;;;;;;;;;4946482;28;21849;-90
2022/06/29 12:04:19;;;;;;;;;;;;;;;;;;4947644;28;19925;-89
2022/06/29 12:06:44;;;;;;;;;;;;;;;;;;4947432;28;19932;-89
2022/06/29 12:09:09;;;;;;;;;;;;;;;;;;4955878;28;19921;-89
2022/06/29 12:11:34;;;;;;;;;;;;;;;;;;4945948;28;19932;-88
2022/06/29 12:13:59;;;;;;;;;;;;;;;;;;4955490;28;19921;-88
2022/06/29 12:16:24;;;;;;;;;;;;;;;;;;4962526;28;20022;-88
2022/06/29 12:18:49;;;;;;;;;;;;;;;;;;4967227;28;19984;-89
2022/06/29 12:21:18;;;;;;;;;;;;;;;;;;4938382;28;20441;-88
2022/06/29 12:23:43;;;;;;;;;;;;;;;;;;4977410;28;19986;-89
2022/06/29 12:26:09;;;;;;;;;;;;;;;;;;4945820;28;19925;-89
2022/06/29 12:28:34;;;;;;;;;;;;;;;;;;5000976;28;19921;-89
2022/06/29 12:30:59;;;;;;;;;;;;;;;;;;5036658;28;19916;-89
2022/06/29 12:33:25;;;;;;;;;;;;;;;;;;5005611;28;19927;-88
2022/06/29 12:35:50;;;;;;;;;;;;;;;;;;5005929;28;20787;-88
2022/06/29 12:38:15;;;;;;;;;;;;;;;;;;5018896;28;21808;-88
2022/06/29 12:40:40;;;;;;;;;;;;;;;;;;5029850;28;19920;-88
2022/06/29 12:43:06;;;;;;;;;;;;;;;;;;5024194;28;19921;-88
2022/06/29 12:45:31;;;;;;;;;;;;;;;;;;4987210;28;20028;-88
2022/06/29 12:47:56;;;;;;;;;;;;;;;;;;4996769;28;20034;-88
2022/06/29 12:50:21;;;;;;;;;;;;;;;;;;4988751;28;19967;-88
2022/06/29 12:52:46;;;;;;;;;;;;;;;;;;4984068;28;20114;-88
2022/06/29 12:55:11;;;;;;;;;;;;;;;;;;4981160;28;20014;-88
2022/06/29 12:57:36;;;;;;;;;;;;;;;;;;4977901;28;20130;-88
2022/06/29 13:00:02;;;;;;;;;;;;;;;;;;4975021;28;19927;-88
2022/06/29 13:02:27;;;;;;;;;;;;;;;;;;4967828;28;22125;-88
2022/06/29 13:04:52;;;;;;;;;;;;;;;;;;4963829;28;19921;-88
2022/06/29 13:07:17;;;;;;;;;;;;;;;;;;4948010;28;20047;-88
2022/06/29 13:09:42;;;;;;;;;;;;;;;;;;4935385;28;19925;-87
2022/06/29 13:12:07;;;;;;;;;;;;;;;;;;4948614;28;21094;-88
2022/06/29 13:14:33;;;;;;;;;;;;;;;;;;4938056;28;19937;-87
2022/06/29 13:16:58;;;;;;;;;;;;;;;;;;4975559;28;19933;-87
2022/06/29 13:19:23;;;;;;;;;;;;;;;;;;4977353;28;19962;-88
2022/06/29 13:21:48;;;;;;;;;;;;;;;;;;5000616;28;19928;-88
2022/06/29 13:24:13;;;;;;;;;;;;;;;;;;5035296;28;19920;-87
2022/06/29 13:26:38;;;;;;;;;;;;;;;;;;5016845;28;19958;-87
2022/06/29 13:29:04;;;;;;;;;;;;;;;;;;5019977;28;19965;-87
2022/06/29 13:31:29;;;;;;;;;;;;;;;;;;5014506;28;19920;-87
2022/06/29 13:33:54;;;;;;;;;;;;;;;;;;5022095;28;19927;-87
2022/06/29 13:36:19;;;;;;;;;;;;;;;;;;5031009;28;19978;-87
2022/06/29 13:38:46;;;;;;;;;;;;;;;;;;4997640;28;20483;-84
2022/06/29 13:41:11;;;;;;;;;;;;;;;;;;4980482;28;19928;-84
2022/06/29 13:43:36;;;;;;;;;;;;;;;;;;5000233;28;19925;-85
2022/06/29 13:46:01;;;;;;;;;;;;;;;;;;4983436;28;19924;-85
2022/06/29 13:48:26;;;;;;;;;;;;;;;;;;4983721;28;19921;-85
2022/06/29 13:50:52;;;;;;;;;;;;;;;;;;4989521;28;19928;-85
2022/06/29 13:53:17;;;;;;;;;;;;;;;;;;4972482;28;23116;-85
2022/06/29 13:55:42;;;;;;;;;;;;;;;;;;4984743;28;19921;-85
2022/06/29 13:58:07;;;;;;;;;;;;;;;;;;4997533;28;20291;-85
2022/06/29 14:00:33;;;;;;;;;;;;;;;;;;5004323;28;19921;-85
2022/06/29 14:02:58;;;;;;;;;;;;;;;;;;5062539;22;20551;-85
2022/06/29 14:05:24;;;;;;;;;;;;;;;;;;5059548;28;19984;-85
2022/06/29 14:07:49;;;;;;;;;;;;;;;;;;5078504;28;20336;-86
2022/06/29 14:10:14;;;;;;;;;;;;;;;;;;5067837;28;19920;-86
2022/06/29 14:12:39;;;;;;;;;;;;;;;;;;5065166;28;19916;-86
2022/06/29 14:15:04;;;;;;;;;;;;;;;;;;5064744;28;20015;-86
2022/06/29 14:17:29;;;;;;;;;;;;;;;;;;5072598;28;19970;-86
2022/06/29 14:19:54;;;;;;;;;;;;;;;;;;5067864;28;19943;-84
2022/06/29 14:22:20;;;;;;;;;;;;;;;;;;5078703;28;19960;-85
2022/06/29 14:24:45;;;;;;;;;;;;;;;;;;5070492;28;19995;-86
2022/06/29 14:27:10;;;;;;;;;;;;;;;;;;5068736;28;20268;-86
2022/06/29 14:29:36;;;;;;;;;;;;;;;;;;5069718;28;20428;-86
2022/06/29 14:32:01;;;;;;;;;;;;;;;;;;5065058;28;19922;-86
2022/06/29 14:34:26;;;;;;;;;;;;;;;;;;5066641;28;19927;-86
2022/06/29 14:36:51;;;;;;;;;;;;;;;;;;5066543;28;19952;-86
2022/06/29 14:39:16;;;;;;;;;;;;;;;;;;5076317;28;19950;-86
2022/06/29 14:41:41;;;;;;;;;;;;;;;;;;5069285;28;20552;-86
2022/06/29 14:44:06;;;;;;;;;;;;;;;;;;5066998;28;20599;-86
2022/06/29 14:46:32;;;;;;;;;;;;;;;;;;5065539;28;20354;-86
2022/06/29 14:48:57;;;;;;;;;;;;;;;;;;5062834;28;19912;-85
2022/06/29 14:51:22;;;;;;;;;;;;;;;;;;5054853;28;19998;-86
2022/06/29 14:53:48;;;;;;;;;;;;;;;;;;5064057;28;19913;-86
2022/06/29 14:56:13;;;;;;;;;;;;;;;;;;5055198;28;20057;-86
2022/06/29 14:58:38;;;;;;;;;;;;;;;;;;5062546;28;19928;-86
2022/06/29 15:01:03;;;;;;;;;;;;;;;;;;5066688;28;19956;-86
2022/06/29 15:03:28;;;;;;;;;;;;;;;;;;5068416;28;19920;-86
2022/06/29 15:05:54;;;;;;;;;;;;;;;;;;5070571;28;20008;-86
2022/06/29 15:08:19;;;;;;;;;;;;;;;;;;5070385;28;20260;-86
2022/06/29 15:10:44;;;;;;;;;;;;;;;;;;5074854;28;20414;-86
2022/06/29 15:13:09;;;;;;;;;;;;;;;;;;5071026;28;19936;-86
2022/06/29 15:15:34;;;;;;;;;;;;;;;;;;5076542;28;20276;-85
2022/06/29 15:17:59;;;;;;;;;;;;;;;;;;5076944;28;19923;-86
2022/06/29 15:20:24;;;;;;;;;;;;;;;;;;5076641;28;19916;-86
2022/06/29 15:22:49;;;;;;;;;;;;;;;;;;5074830;28;20386;-86
2022/06/29 15:25:15;;;;;;;;;;;;;;;;;;5068215;28;19983;-86
2022/06/29 15:27:40;;;;;;;;;;;;;;;;;;5073872;28;20008;-87
2022/06/29 15:30:05;;;;;;;;;;;;;;;;;;5074619;28;19912;-86
2022/06/29 15:32:30;;;;;;;;;;;;;;;;;;5071759;28;20318;-86
2022/06/29 15:40:23;;;;;;;;;;;;;;;;;;5073953;28;19919;-86
2022/06/29 15:42:48;;;;;;;;;;;;;;;;;;5073909;28;19909;-86
2022/06/29 15:45:14;;;;;;;;;;;;;;;;;;5074280;28;19912;-86
2022/06/29 15:47:39;;;;;;;;;;;;;;;;;;5075628;28;19970;-86
2022/06/29 15:50:04;;;;;;;;;;;;;;;;;;5078049;28;20343;-86
2022/06/29 15:52:29;;;;;;;;;;;;;;;;;;5077505;28;19999;-86
2022/06/29 15:57:38;;;;;;;;;;;;;;;;;;5077962;28;19959;-86
2022/06/29 16:00:03;;;;;;;;;;;;;;;;;;5075407;28;19912;-86
2022/06/29 16:02:28;;;;;;;;;;;;;;;;;;5078867;28;19920;-86
2022/06/29 16:04:54;;;;;;;;;;;;;;;;;;5078266;28;19912;-86
2022/06/29 16:07:19;;;;;;;;;;;;;;;;;;5078152;28;19914;-86
2022/06/29 16:09:44;;;;;;;;;;;;;;;;;;5077804;28;20323;-87
2022/06/29 16:12:13;;;;;;;;;;;;;;;;;;5077548;28;19909;-86
2022/06/29 16:14:39;;;;;;;;;;;;;;;;;;5078198;28;19955;-86
2022/06/29 16:17:04;;;;;;;;;;;;;;;;;;5079209;28;19912;-87
2022/06/29 16:19:29;;;;;;;;;;;;;;;;;;5078221;28;19914;-85
2022/06/29 16:21:54;;;;;;;;;;;;;;;;;;5085621;28;19920;-85
2022/06/29 16:24:19;;;;;;;;;;;;;;;;;;5078100;28;19915;-86
2022/06/29 16:26:44;;;;;;;;;;;;;;;;;;5078061;28;19977;-85
2022/06/29 16:29:10;;;;;;;;;;;;;;;;;;5080061;28;19909;-84
2022/06/29 16:31:35;;;;;;;;;;;;;;;;;;5079140;28;20291;-86
2022/06/29 16:34:00;;;;;;;;;;;;;;;;;;5077686;28;20363;-85
2022/06/29 16:36:25;;;;;;;;;;;;;;;;;;5078061;28;20321;-85
2022/06/29 16:38:50;;;;;;;;;;;;;;;;;;5078609;28;19908;-84
2022/06/29 16:41:16;;;;;;;;;;;;;;;;;;5079409;28;19909;-85
2022/06/29 16:43:41;;;;;;;;;;;;;;;;;;5078275;28;19991;-84
2022/06/29 16:46:06;;;;;;;;;;;;;;;;;;5078067;28;19917;-86
2022/06/29 16:48:31;;;;;;;;;;;;;;;;;;5078089;28;19908;-85
2022/06/29 16:50:56;;;;;;;;;;;;;;;;;;5078353;28;19916;-85
2022/06/29 16:53:21;;;;;;;;;;;;;;;;;;5077400;28;20363;-85
2022/06/29 16:55:46;;;;;;;;;;;;;;;;;;5077033;28;20393;-84
2022/06/29 16:58:14;;;;;;;;;;;;;;;;;;5076175;28;19916;-84
2022/06/29 17:00:39;;;;;;;;;;;;;;;;;;5077177;28;19912;-84
2022/06/29 17:03:04;;;;;;;;;;;;;;;;;;5076952;28;20268;-85
2022/06/29 17:05:29;;;;;;;;;;;;;;;;;;5077220;28;19909;-84
2022/06/29 17:07:55;;;;;;;;;;;;;;;;;;5076927;28;20290;-84
2022/06/29 17:10:20;;;;;;;;;;;;;;;;;;5076828;28;19915;-85
2022/06/29 17:12:45;;;;;;;;;;;;;;;;;;5076686;28;19915;-85
2022/06/29 17:15:10;;;;;;;;;;;;;;;;;;5077352;28;20372;-85